createdAt,value
2023-04-09T00:00:56.682Z,27.63
2023-04-09T00:01:56.690Z,27.60
2023-04-09T00:02:56.805Z,27.63
2023-04-09T00:03:56.734Z,27.63
2023-04-09T00:04:56.706Z,27.55
2023-04-09T00:05:56.715Z,27.65
2023-04-09T00:06:56.708Z,27.66
2023-04-09T00:07:56.725Z,27.65
2023-04-09T00:08:56.740Z,27.59
2023-04-09T00:09:56.752Z,27.60
2023-04-09T00:10:56.752Z,27.60
2023-04-09T00:11:56.824Z,27.62
2023-04-09T00:12:56.771Z,27.62
2023-04-09T00:13:56.790Z,27.59
2023-04-09T00:14:56.811Z,27.62
2023-04-09T00:15:56.891Z,27.66
2023-04-09T00:16:56.847Z,27.65
2023-04-09T00:17:56.880Z,27.65
2023-04-09T00:18:56.872Z,27.65
2023-04-09T00:19:57.860Z,27.62
2023-04-09T00:20:56.851Z,27.63
2023-04-09T00:21:56.854Z,27.68
2023-04-09T00:22:56.900Z,27.63
2023-04-09T00:23:56.810Z,27.68
2023-04-09T00:24:56.791Z,27.63
2023-04-09T00:25:56.784Z,27.66
2023-04-09T00:26:56.768Z,27.66
2023-04-09T00:27:56.757Z,27.65
2023-04-09T00:28:56.752Z,27.66
2023-04-09T00:29:56.826Z,27.66
2023-04-09T00:30:56.718Z,27.65
2023-04-09T00:31:56.763Z,27.62
2023-04-09T00:32:56.774Z,27.66
2023-04-09T00:33:56.682Z,27.68
2023-04-09T00:34:56.667Z,27.68
2023-04-09T00:35:56.791Z,27.71
2023-04-09T00:36:56.714Z,27.60
2023-04-09T00:37:56.632Z,27.66
2023-04-09T00:38:56.618Z,27.68
2023-04-09T00:39:56.608Z,27.68
2023-04-09T00:40:56.595Z,27.66
2023-04-09T00:41:56.580Z,27.66
2023-04-09T00:42:56.598Z,27.71
2023-04-09T00:43:56.591Z,27.68
2023-04-09T00:44:56.609Z,27.69
2023-04-09T00:45:56.648Z,27.69
2023-04-09T00:46:56.640Z,27.71
2023-04-09T00:47:56.694Z,27.69
2023-04-09T00:48:56.684Z,27.66
2023-04-09T00:49:57.254Z,27.68
2023-04-09T00:50:56.735Z,27.69
2023-04-09T00:51:56.720Z,27.72
2023-04-09T00:52:56.742Z,27.72
2023-04-09T00:53:56.774Z,27.72
2023-04-09T00:54:56.775Z,27.69
2023-04-09T00:55:56.797Z,27.71
2023-04-09T00:56:56.814Z,27.71
2023-04-09T00:57:56.839Z,27.76
2023-04-09T00:58:56.870Z,27.72
2023-04-09T00:59:56.882Z,27.73
2023-04-09T01:00:56.962Z,27.69
2023-04-09T01:01:57.297Z,27.73
2023-04-09T01:02:56.981Z,27.76
2023-04-09T01:03:56.936Z,27.75
2023-04-09T01:04:56.954Z,27.71
2023-04-09T01:05:56.976Z,27.72
2023-04-09T01:06:58.759Z,27.75
2023-04-09T01:07:57.068Z,27.76
2023-04-09T01:08:57.113Z,27.73
2023-04-09T01:09:57.080Z,27.78
2023-04-09T01:10:57.063Z,27.75
2023-04-09T01:11:57.076Z,27.76
2023-04-09T01:12:57.089Z,27.75
2023-04-09T01:13:57.112Z,27.69
2023-04-09T01:14:57.134Z,27.72
2023-04-09T01:15:57.147Z,27.76
2023-04-09T01:16:57.203Z,27.74
2023-04-09T01:17:57.239Z,27.73
2023-04-09T01:18:57.222Z,27.73
2023-04-09T01:19:57.215Z,27.71
2023-04-09T01:20:57.217Z,27.73
2023-04-09T01:21:57.223Z,27.75
2023-04-09T01:22:57.265Z,27.76
2023-04-09T01:23:57.255Z,27.76
2023-04-09T01:24:57.257Z,27.71
2023-04-09T01:25:57.269Z,27.69
2023-04-09T01:26:57.311Z,27.71
2023-04-09T01:27:57.302Z,27.71
2023-04-09T01:28:57.312Z,27.71
2023-04-09T01:29:57.328Z,27.71
2023-04-09T01:30:57.388Z,27.72
2023-04-09T01:31:57.346Z,27.74
2023-04-09T01:32:57.393Z,27.71
2023-04-09T01:33:57.346Z,27.75
2023-04-09T01:34:57.364Z,27.72
2023-04-09T01:35:57.387Z,27.79
2023-04-09T01:36:57.398Z,27.74
2023-04-09T01:37:57.551Z,27.75
2023-04-09T01:38:57.450Z,27.72
2023-04-09T01:39:57.436Z,27.74
2023-04-09T01:40:57.438Z,27.72
2023-04-09T01:41:57.588Z,27.72
2023-04-09T01:42:57.467Z,27.74
2023-04-09T01:43:57.473Z,27.75
2023-04-09T01:44:57.494Z,27.69
2023-04-09T01:45:57.540Z,27.72
2023-04-09T01:46:57.562Z,27.71
2023-04-09T01:47:57.609Z,27.71
2023-04-09T01:48:57.637Z,27.71
2023-04-09T01:49:57.572Z,27.74
2023-04-09T01:50:57.566Z,27.76
2023-04-09T01:51:57.589Z,27.75
2023-04-09T01:52:57.606Z,27.74
2023-04-09T01:53:57.628Z,27.75
2023-04-09T01:54:57.630Z,27.72
2023-04-09T01:55:57.637Z,27.74
2023-04-09T01:56:57.659Z,27.77
2023-04-09T01:57:58.288Z,27.72
2023-04-09T01:58:57.686Z,27.75
2023-04-09T01:59:57.691Z,27.69
2023-04-09T02:00:57.765Z,27.77
2023-04-09T02:01:57.759Z,27.72
2023-04-09T02:02:57.796Z,27.77
2023-04-09T02:03:58.064Z,27.75
2023-04-09T02:04:57.752Z,27.75
2023-04-09T02:05:57.758Z,27.77
2023-04-09T02:06:57.764Z,27.77
2023-04-09T02:07:57.774Z,27.75
2023-04-09T02:08:57.793Z,27.76
2023-04-09T02:09:57.794Z,27.75
2023-04-09T02:10:57.814Z,27.72
2023-04-09T02:11:57.828Z,27.75
2023-04-09T02:12:57.846Z,27.79
2023-04-09T02:13:57.859Z,27.74
2023-04-09T02:14:57.869Z,27.74
2023-04-09T02:15:57.952Z,27.78
2023-04-09T02:16:57.891Z,27.81
2023-04-09T02:17:58.023Z,27.77
2023-04-09T02:18:57.997Z,27.71
2023-04-09T02:19:57.933Z,27.74
2023-04-09T02:20:57.950Z,27.78
2023-04-09T02:21:57.955Z,27.72
2023-04-09T02:22:57.979Z,27.76
2023-04-09T02:23:57.977Z,27.72
2023-04-09T02:24:58.049Z,27.81
2023-04-09T02:25:58.006Z,27.76
2023-04-09T02:26:58.018Z,27.81
2023-04-09T02:27:58.031Z,27.78
2023-04-09T02:28:58.051Z,27.76
2023-04-09T02:29:58.064Z,27.75
2023-04-09T02:30:58.082Z,27.76
2023-04-09T02:31:58.094Z,27.74
2023-04-09T02:32:58.128Z,27.79
2023-04-09T02:33:58.250Z,27.81
2023-04-09T02:34:58.120Z,27.75
2023-04-09T02:35:58.203Z,27.78
2023-04-09T02:36:58.279Z,27.78
2023-04-09T02:37:58.192Z,27.76
2023-04-09T02:38:58.194Z,27.74
2023-04-09T02:39:58.395Z,27.76
2023-04-09T02:40:58.228Z,27.74
2023-04-09T02:41:58.246Z,27.76
2023-04-09T02:42:58.268Z,27.76
2023-04-09T02:43:58.296Z,27.78
2023-04-09T02:44:58.298Z,27.74
2023-04-09T02:45:58.321Z,27.78
2023-04-09T02:46:58.303Z,27.76
2023-04-09T02:47:58.336Z,27.80
2023-04-09T02:48:58.321Z,27.77
2023-04-09T02:49:58.446Z,27.77
2023-04-09T02:50:58.362Z,27.79
2023-04-09T02:51:58.381Z,27.81
2023-04-09T02:52:58.377Z,27.76
2023-04-09T02:53:58.388Z,27.80
2023-04-09T02:54:58.415Z,27.76
2023-04-09T02:55:58.435Z,27.80
2023-04-09T02:56:58.494Z,27.75
2023-04-09T02:57:58.444Z,27.82
2023-04-09T02:58:58.455Z,27.80
2023-04-09T02:59:58.474Z,27.78
2023-04-09T03:00:58.504Z,27.78
2023-04-09T03:01:58.696Z,27.79
2023-04-09T03:02:58.627Z,27.79
2023-04-09T03:03:58.685Z,27.80
2023-04-09T03:04:58.544Z,27.78
2023-04-09T03:05:58.567Z,27.80
2023-04-09T03:06:58.579Z,27.80
2023-04-09T03:07:58.585Z,27.75
2023-04-09T03:08:58.596Z,27.79
2023-04-09T03:09:58.612Z,27.80
2023-04-09T03:10:58.627Z,27.77
2023-04-09T03:11:58.639Z,27.78
2023-04-09T03:12:58.653Z,27.79
2023-04-09T03:13:58.655Z,27.84
2023-04-09T03:14:58.682Z,27.80
2023-04-09T03:15:58.684Z,27.80
2023-04-09T03:16:58.687Z,27.78
2023-04-09T03:17:58.746Z,27.81
2023-04-09T03:18:58.722Z,27.80
2023-04-09T03:19:58.731Z,27.78
2023-04-09T03:20:58.741Z,27.77
2023-04-09T03:21:58.766Z,27.81
2023-04-09T03:22:58.778Z,27.78
2023-04-09T03:23:58.783Z,27.76
2023-04-09T03:24:58.795Z,27.78
2023-04-09T03:25:58.805Z,27.81
2023-04-09T03:26:58.813Z,27.76
2023-04-09T03:27:58.828Z,27.80
2023-04-09T03:28:58.842Z,27.81
2023-04-09T03:29:58.840Z,27.77
2023-04-09T03:30:58.854Z,27.78
2023-04-09T03:31:58.853Z,27.78
2023-04-09T03:32:58.918Z,27.74
2023-04-09T03:33:58.868Z,27.77
2023-04-09T03:34:59.854Z,27.84
2023-04-09T03:35:59.006Z,27.83
2023-04-09T03:36:59.063Z,27.79
2023-04-09T03:37:58.920Z,27.80
2023-04-09T03:38:58.921Z,27.81
2023-04-09T03:39:58.996Z,27.78
2023-04-09T03:40:59.033Z,27.77
2023-04-09T03:41:59.008Z,27.80
2023-04-09T03:42:58.937Z,27.75
2023-04-09T03:43:58.946Z,27.80
2023-04-09T03:44:58.957Z,27.78
2023-04-09T03:45:58.963Z,27.78
2023-04-09T03:46:58.996Z,27.77
2023-04-09T03:47:59.046Z,27.81
2023-04-09T03:48:59.374Z,27.74
2023-04-09T03:49:58.986Z,27.81
2023-04-09T03:50:59.071Z,27.83
2023-04-09T03:51:59.043Z,27.80
2023-04-09T03:52:59.049Z,27.81
2023-04-09T03:53:59.026Z,27.78
2023-04-09T03:54:59.036Z,27.80
2023-04-09T03:55:59.066Z,27.79
2023-04-09T03:56:59.061Z,27.78
2023-04-09T03:57:59.069Z,27.80
2023-04-09T03:58:59.169Z,27.80
2023-04-09T03:59:59.121Z,27.81
2023-04-09T04:00:59.141Z,27.78
2023-04-09T04:01:59.164Z,27.80
2023-04-09T04:02:59.333Z,27.81
2023-04-09T04:03:59.241Z,27.80
2023-04-09T04:04:59.138Z,27.81
2023-04-09T04:05:59.146Z,27.78
2023-04-09T04:06:59.178Z,27.82
2023-04-09T04:07:59.181Z,27.81
2023-04-09T04:08:59.300Z,27.80
2023-04-09T04:09:59.221Z,27.84
2023-04-09T04:10:59.210Z,27.80
2023-04-09T04:11:59.216Z,27.80
2023-04-09T04:12:59.266Z,27.80
2023-04-09T04:13:59.267Z,27.81
2023-04-09T04:14:59.274Z,27.82
2023-04-09T04:15:59.293Z,27.80
2023-04-09T04:16:59.267Z,27.80
2023-04-09T04:17:59.309Z,27.80
2023-04-09T04:18:59.295Z,27.83
2023-04-09T04:19:59.342Z,27.80
2023-04-09T04:20:59.324Z,27.84
2023-04-09T04:21:59.338Z,27.84
2023-04-09T04:22:59.340Z,27.79
2023-04-09T04:23:59.342Z,27.80
2023-04-09T04:24:59.353Z,27.79
2023-04-09T04:26:00.268Z,27.80
2023-04-09T04:26:59.374Z,27.75
2023-04-09T04:27:59.389Z,27.81
2023-04-09T04:28:59.387Z,27.80
2023-04-09T04:29:59.424Z,27.80
2023-04-09T04:30:59.402Z,27.78
2023-04-09T04:31:59.472Z,27.83
2023-04-09T04:32:59.479Z,27.81
2023-04-09T04:33:59.428Z,27.84
2023-04-09T04:34:59.537Z,27.74
2023-04-09T04:35:59.490Z,27.81
2023-04-09T04:36:59.448Z,27.77
2023-04-09T04:37:59.444Z,27.77
2023-04-09T04:38:59.463Z,27.77
2023-04-09T04:39:59.457Z,27.74
2023-04-09T04:40:59.471Z,27.80
2023-04-09T04:41:59.471Z,27.80
2023-04-09T04:42:59.489Z,27.83
2023-04-09T04:43:59.503Z,27.83
2023-04-09T04:44:59.506Z,27.79
2023-04-09T04:45:59.530Z,27.80
2023-04-09T04:46:59.514Z,27.80
2023-04-09T04:47:59.563Z,27.81
2023-04-09T04:48:59.523Z,27.82
2023-04-09T04:49:59.532Z,27.83
2023-04-09T04:50:59.539Z,27.81
2023-04-09T04:51:59.551Z,27.83
2023-04-09T04:52:59.554Z,27.81
2023-04-09T04:53:59.624Z,27.83
2023-04-09T04:54:59.561Z,27.81
2023-04-09T04:55:59.572Z,27.81
2023-04-09T04:56:59.578Z,27.80
2023-04-09T04:57:59.580Z,27.83
2023-04-09T04:58:59.599Z,27.85
2023-04-09T05:00:00.457Z,27.83
2023-04-09T05:00:59.656Z,27.81
2023-04-09T05:01:59.687Z,27.82
2023-04-09T05:02:59.786Z,27.77
2023-04-09T05:03:59.643Z,27.80
2023-04-09T05:04:59.604Z,27.80
2023-04-09T05:05:59.607Z,27.81
2023-04-09T05:06:59.613Z,27.77
2023-04-09T05:07:59.615Z,27.81
2023-04-09T05:08:59.639Z,27.83
2023-04-09T05:09:59.640Z,27.77
2023-04-09T05:10:59.645Z,27.77
2023-04-09T05:11:59.657Z,27.79
2023-04-09T05:12:59.657Z,27.80
2023-04-09T05:14:00.448Z,27.81
2023-04-09T05:14:59.654Z,27.77
2023-04-09T05:15:59.663Z,27.79
2023-04-09T05:16:59.795Z,27.79
2023-04-09T05:17:59.741Z,27.74
2023-04-09T05:18:59.680Z,27.80
2023-04-09T05:19:59.716Z,27.81
2023-04-09T05:20:59.701Z,27.82
2023-04-09T05:21:59.708Z,27.82
2023-04-09T05:22:59.710Z,27.79
2023-04-09T05:23:59.721Z,27.79
2023-04-09T05:24:59.730Z,27.77
2023-04-09T05:25:59.726Z,27.76
2023-04-09T05:26:59.734Z,27.80
2023-04-09T05:27:59.734Z,27.79
2023-04-09T05:28:59.766Z,27.76
2023-04-09T05:30:00.917Z,27.81
2023-04-09T05:30:59.810Z,27.79
2023-04-09T05:31:59.736Z,27.79
2023-04-09T05:32:59.780Z,27.76
2023-04-09T05:33:59.741Z,27.77
2023-04-09T05:34:59.738Z,27.80
2023-04-09T05:35:59.762Z,27.79
2023-04-09T05:36:59.741Z,27.80
2023-04-09T05:37:59.734Z,27.76
2023-04-09T05:38:59.767Z,27.74
2023-04-09T05:39:59.711Z,27.74
2023-04-09T05:40:59.741Z,27.76
2023-04-09T05:41:59.778Z,27.73
2023-04-09T05:42:59.758Z,27.77
2023-04-09T05:44:00.961Z,27.77
2023-04-09T05:44:59.741Z,27.77
2023-04-09T05:45:59.740Z,27.80
2023-04-09T05:46:59.736Z,27.76
2023-04-09T05:47:59.789Z,27.74
2023-04-09T05:49:00.361Z,27.73
2023-04-09T05:49:59.738Z,27.74
2023-04-09T05:51:00.935Z,27.80
2023-04-09T05:51:59.738Z,27.76
2023-04-09T05:52:59.740Z,27.77
2023-04-09T05:53:59.743Z,27.76
2023-04-09T05:54:59.742Z,27.72
2023-04-09T05:55:59.789Z,27.73
2023-04-09T05:56:59.832Z,27.72
2023-04-09T05:57:59.743Z,27.72
2023-04-09T05:58:59.746Z,27.75
2023-04-09T05:59:59.738Z,27.73
2023-04-09T06:00:59.745Z,27.69
2023-04-09T06:01:59.847Z,27.75
2023-04-09T06:02:59.814Z,27.73
2023-04-09T06:04:00.121Z,27.73
2023-04-09T06:04:59.799Z,27.75
2023-04-09T06:05:59.755Z,27.72
2023-04-09T06:06:59.747Z,27.72
2023-04-09T06:07:59.755Z,27.72
2023-04-09T06:08:59.755Z,27.69
2023-04-09T06:09:59.741Z,27.67
2023-04-09T06:10:59.747Z,27.72
2023-04-09T06:11:59.741Z,27.67
2023-04-09T06:12:59.756Z,27.69
2023-04-09T06:14:00.407Z,27.71
2023-04-09T06:14:59.735Z,27.66
2023-04-09T06:15:59.754Z,27.64
2023-04-09T06:16:59.724Z,27.71
2023-04-09T06:17:59.769Z,27.71
2023-04-09T06:18:59.720Z,27.68
2023-04-09T06:19:59.723Z,27.60
2023-04-09T06:20:59.730Z,27.69
2023-04-09T06:21:59.736Z,27.69
2023-04-09T06:22:59.735Z,27.64
2023-04-09T06:23:59.884Z,27.68
2023-04-09T06:24:59.740Z,27.71
2023-04-09T06:25:59.734Z,27.64
2023-04-09T06:26:59.799Z,27.66
2023-04-09T06:27:59.722Z,27.64
2023-04-09T06:28:59.714Z,27.66
2023-04-09T06:29:59.714Z,27.62
2023-04-09T06:30:59.774Z,27.65
2023-04-09T06:31:59.700Z,27.61
2023-04-09T06:32:59.756Z,27.64
2023-04-09T06:33:59.692Z,27.64
2023-04-09T06:34:59.701Z,27.66
2023-04-09T06:35:59.701Z,27.66
2023-04-09T06:36:59.694Z,27.61
2023-04-09T06:37:59.699Z,27.59
2023-04-09T06:38:59.737Z,27.59
2023-04-09T06:40:01.277Z,27.62
2023-04-09T06:40:59.718Z,27.61
2023-04-09T06:41:59.751Z,27.62
2023-04-09T06:42:59.724Z,27.65
2023-04-09T06:43:59.718Z,27.55
2023-04-09T06:44:59.708Z,27.59
2023-04-09T06:45:59.716Z,27.58
2023-04-09T06:46:59.725Z,27.61
2023-04-09T06:47:59.935Z,27.58
2023-04-09T06:48:59.741Z,27.61
2023-04-09T06:49:59.746Z,27.64
2023-04-09T06:50:59.745Z,27.62
2023-04-09T06:51:59.762Z,27.61
2023-04-09T06:52:59.796Z,27.59
2023-04-09T06:53:59.864Z,27.55
2023-04-09T06:54:59.792Z,27.55
2023-04-09T06:55:59.824Z,27.61
2023-04-09T06:56:59.924Z,27.55
2023-04-09T06:57:59.806Z,27.57
2023-04-09T06:58:59.822Z,27.52
2023-04-09T06:59:59.806Z,27.60
2023-04-09T07:01:00.035Z,27.58
2023-04-09T07:01:59.854Z,27.58
2023-04-09T07:02:59.903Z,27.57
2023-04-09T07:04:00.000Z,27.60
2023-04-09T07:04:59.827Z,27.57
2023-04-09T07:05:59.823Z,27.51
2023-04-09T07:06:59.796Z,27.49
2023-04-09T07:07:59.790Z,27.57
2023-04-09T07:08:59.780Z,27.57
2023-04-09T07:09:59.766Z,27.51
2023-04-09T07:10:59.760Z,27.49
2023-04-09T07:11:59.766Z,27.52
2023-04-09T07:12:59.763Z,27.56
2023-04-09T07:13:59.753Z,27.49
2023-04-09T07:14:59.740Z,27.52
2023-04-09T07:15:59.748Z,27.54
2023-04-09T07:16:59.740Z,27.55
2023-04-09T07:17:59.774Z,27.55
2023-04-09T07:18:59.746Z,27.52
2023-04-09T07:19:59.745Z,27.49
2023-04-09T07:21:00.186Z,27.53
2023-04-09T07:21:59.779Z,27.57
2023-04-09T07:22:59.813Z,27.54
2023-04-09T07:23:59.808Z,27.57
2023-04-09T07:24:59.792Z,27.53
2023-04-09T07:25:59.773Z,27.51
2023-04-09T07:26:59.787Z,27.55
2023-04-09T07:27:59.774Z,27.51
2023-04-09T07:28:59.774Z,27.53
2023-04-09T07:29:59.770Z,27.48
2023-04-09T07:30:59.757Z,27.49
2023-04-09T07:31:59.759Z,27.51
2023-04-09T07:32:59.753Z,27.53
2023-04-09T07:33:59.704Z,27.54
2023-04-09T07:35:00.359Z,27.49
2023-04-09T07:35:59.681Z,27.53
2023-04-09T07:36:59.664Z,27.48
2023-04-09T07:37:59.651Z,27.53
2023-04-09T07:38:59.666Z,27.53
2023-04-09T07:39:59.674Z,27.51
2023-04-09T07:40:59.652Z,27.53
2023-04-09T07:41:59.651Z,27.45
2023-04-09T07:42:59.644Z,27.47
2023-04-09T07:43:59.630Z,27.50
2023-04-09T07:44:59.815Z,27.50
2023-04-09T07:45:59.603Z,27.51
2023-04-09T07:46:59.626Z,27.53
2023-04-09T07:47:59.681Z,27.48
2023-04-09T07:48:59.623Z,27.44
2023-04-09T07:49:59.592Z,27.49
2023-04-09T07:50:59.660Z,27.47
2023-04-09T07:51:59.584Z,27.43
2023-04-09T07:52:59.572Z,27.47
2023-04-09T07:53:59.560Z,27.49
2023-04-09T07:54:59.539Z,27.44
2023-04-09T07:55:59.544Z,27.46
2023-04-09T07:56:59.530Z,27.41
2023-04-09T07:57:59.502Z,27.47
2023-04-09T07:58:59.500Z,27.38
2023-04-09T07:59:59.487Z,27.43
2023-04-09T08:00:59.479Z,27.41
2023-04-09T08:01:59.623Z,27.46
2023-04-09T08:02:59.678Z,27.43
2023-04-09T08:03:59.580Z,27.42
2023-04-09T08:04:59.614Z,27.44
2023-04-09T08:05:59.459Z,27.43
2023-04-09T08:06:59.455Z,27.42
2023-04-09T08:07:59.440Z,27.44
2023-04-09T08:08:59.424Z,27.42
2023-04-09T08:09:59.415Z,27.43
2023-04-09T08:10:59.407Z,27.40
2023-04-09T08:11:59.416Z,27.40
2023-04-09T08:12:59.561Z,27.44
2023-04-09T08:13:59.419Z,27.39
2023-04-09T08:14:59.352Z,27.38
2023-04-09T08:15:59.386Z,27.39
2023-04-09T08:16:59.410Z,27.43
2023-04-09T08:17:59.468Z,27.40
2023-04-09T08:18:59.358Z,27.34
2023-04-09T08:19:59.353Z,27.34
2023-04-09T08:20:59.489Z,27.36
2023-04-09T08:21:59.328Z,27.34
2023-04-09T08:22:59.337Z,27.39
2023-04-09T08:23:59.315Z,27.38
2023-04-09T08:25:00.252Z,27.34
2023-04-09T08:25:59.293Z,27.33
2023-04-09T08:26:59.264Z,27.29
2023-04-09T08:27:59.236Z,27.29
2023-04-09T08:28:59.387Z,27.31
2023-04-09T08:29:59.208Z,27.35
2023-04-09T08:30:59.183Z,27.28
2023-04-09T08:32:00.006Z,27.25
2023-04-09T08:32:59.235Z,27.26
2023-04-09T08:33:59.116Z,27.28
2023-04-09T08:34:59.383Z,27.25
2023-04-09T08:35:59.927Z,27.21
2023-04-09T08:36:59.110Z,27.21
2023-04-09T08:37:59.088Z,27.21
2023-04-09T08:38:59.028Z,27.21
2023-04-09T08:39:59.005Z,27.24
2023-04-09T08:40:59.057Z,27.22
2023-04-09T08:41:59.064Z,27.19
2023-04-09T08:42:58.951Z,27.15
2023-04-09T08:43:59.710Z,27.15
2023-04-09T08:44:59.042Z,27.15
2023-04-09T08:45:59.009Z,27.14
2023-04-09T08:46:59.714Z,27.15
2023-04-09T08:47:58.911Z,27.13
2023-04-09T08:48:58.921Z,27.13
2023-04-09T08:49:58.975Z,27.14
2023-04-09T08:50:59.021Z,27.00
2023-04-09T08:51:59.058Z,27.04
2023-04-09T08:52:59.099Z,27.03
2023-04-09T08:54:00.189Z,27.06
2023-04-09T08:54:59.192Z,27.07
2023-04-09T08:55:59.136Z,27.06
2023-04-09T08:56:59.076Z,27.03
2023-04-09T08:57:59.081Z,27.06
2023-04-09T08:58:59.034Z,27.02
2023-04-09T08:59:59.028Z,26.97
2023-04-09T09:00:59.020Z,26.99
2023-04-09T09:01:59.102Z,26.99
2023-04-09T09:02:59.065Z,26.99
2023-04-09T09:03:59.041Z,27.04
2023-04-09T09:04:58.909Z,27.00
2023-04-09T09:05:58.891Z,26.99
2023-04-09T09:06:58.866Z,26.97
2023-04-09T09:07:58.987Z,26.97
2023-04-09T09:08:58.839Z,26.93
2023-04-09T09:09:58.847Z,27.00
2023-04-09T09:10:58.856Z,26.99
2023-04-09T09:11:58.782Z,26.96
2023-04-09T09:12:58.758Z,26.94
2023-04-09T09:13:58.732Z,26.95
2023-04-09T09:14:58.718Z,26.95
2023-04-09T09:15:58.688Z,26.98
2023-04-09T09:16:58.717Z,26.97
2023-04-09T09:17:58.676Z,26.95
2023-04-09T09:18:58.784Z,26.96
2023-04-09T09:19:58.767Z,27.01
2023-04-09T09:20:58.590Z,26.99
2023-04-09T09:21:58.569Z,26.97
2023-04-09T09:22:58.546Z,26.95
2023-04-09T09:23:58.542Z,26.96
2023-04-09T09:24:58.554Z,27.02
2023-04-09T09:25:58.507Z,27.02
2023-04-09T09:26:58.456Z,27.05
2023-04-09T09:27:58.438Z,26.99
2023-04-09T09:28:58.420Z,27.02
2023-04-09T09:29:58.589Z,27.02
2023-04-09T09:30:58.413Z,27.02
2023-04-09T09:31:58.375Z,27.02
2023-04-09T09:32:58.379Z,27.00
2023-04-09T09:33:58.339Z,27.00
2023-04-09T09:34:58.393Z,27.06
2023-04-09T09:35:58.964Z,27.02
2023-04-09T09:36:58.471Z,27.02
2023-04-09T09:37:58.645Z,27.03
2023-04-09T09:38:58.551Z,26.99
2023-04-09T09:39:58.592Z,26.96
2023-04-09T09:40:58.641Z,26.99
2023-04-09T09:41:58.690Z,26.99
2023-04-09T09:42:58.723Z,27.05
2023-04-09T09:43:58.740Z,26.98
2023-04-09T09:44:59.032Z,26.99
2023-04-09T09:45:58.857Z,26.98
2023-04-09T09:46:58.875Z,26.99
2023-04-09T09:47:58.922Z,26.98
2023-04-09T09:48:58.927Z,26.96
2023-04-09T09:49:59.025Z,26.99
2023-04-09T09:50:59.006Z,26.98
2023-04-09T09:51:59.050Z,26.95
2023-04-09T09:52:59.188Z,26.98
2023-04-09T09:53:59.133Z,26.95
2023-04-09T09:54:59.216Z,26.98
2023-04-09T09:55:59.263Z,26.95
2023-04-09T09:56:59.351Z,26.99
2023-04-09T09:57:59.257Z,26.98
2023-04-09T09:58:59.298Z,27.01
2023-04-09T09:59:59.337Z,26.99
2023-04-09T10:00:59.401Z,26.98
2023-04-09T10:01:59.502Z,26.95
2023-04-09T10:02:59.699Z,26.99
2023-04-09T10:03:59.494Z,26.99
2023-04-09T10:04:59.532Z,26.99
2023-04-09T10:05:59.570Z,26.99
2023-04-09T10:06:59.613Z,26.95
2023-04-09T10:08:00.535Z,26.98
2023-04-09T10:08:59.694Z,26.99
2023-04-09T10:09:59.743Z,26.96
2023-04-09T10:10:59.769Z,26.99
2023-04-09T10:11:59.817Z,26.98
2023-04-09T10:12:59.861Z,26.99
2023-04-09T10:13:59.897Z,26.96
2023-04-09T10:14:59.944Z,26.98
2023-04-09T10:16:01.131Z,27.01
2023-04-09T10:17:00.022Z,26.96
2023-04-09T10:18:00.261Z,26.90
2023-04-09T10:19:00.155Z,26.90
2023-04-09T10:20:00.167Z,26.96
2023-04-09T10:21:00.156Z,26.98
2023-04-09T10:22:00.173Z,26.96
2023-04-09T10:23:00.217Z,26.98
2023-04-09T10:24:00.269Z,26.92
2023-04-09T10:25:00.280Z,26.98
2023-04-09T10:26:00.447Z,26.96
2023-04-09T10:27:00.357Z,26.98
2023-04-09T10:28:00.387Z,26.90
2023-04-09T10:29:00.438Z,26.95
2023-04-09T10:30:01.097Z,26.98
2023-04-09T10:31:00.745Z,26.95
2023-04-09T10:32:00.557Z,26.93
2023-04-09T10:33:00.646Z,26.93
2023-04-09T10:34:00.618Z,26.97
2023-04-09T10:35:00.662Z,26.96
2023-04-09T10:36:00.768Z,26.92
2023-04-09T10:37:00.756Z,26.98
2023-04-09T10:38:00.789Z,26.92
2023-04-09T10:39:00.827Z,26.93
2023-04-09T10:40:00.871Z,26.92
2023-04-09T10:41:00.912Z,26.93
2023-04-09T10:42:00.952Z,26.98
2023-04-09T10:43:00.993Z,26.95
2023-04-09T10:44:01.026Z,26.99
2023-04-09T10:45:01.137Z,27.00
2023-04-09T10:46:01.151Z,26.91
2023-04-09T10:47:01.140Z,26.97
2023-04-09T10:48:01.234Z,26.96
2023-04-09T10:49:01.243Z,26.96
2023-04-09T10:50:01.266Z,26.90
2023-04-09T10:51:01.318Z,26.96
2023-04-09T10:52:01.364Z,26.93
2023-04-09T10:53:01.557Z,26.93
2023-04-09T10:54:01.456Z,26.96
2023-04-09T10:55:01.505Z,26.93
2023-04-09T10:56:01.584Z,26.98
2023-04-09T10:57:01.594Z,26.95
2023-04-09T10:58:02.536Z,27.00
2023-04-09T10:59:01.671Z,26.96
2023-04-09T11:00:01.718Z,26.99
2023-04-09T11:01:02.509Z,27.01
2023-04-09T11:02:01.885Z,26.96
2023-04-09T11:03:02.178Z,27.01
2023-04-09T11:04:01.917Z,26.99
2023-04-09T11:05:02.087Z,26.95
2023-04-09T11:06:02.050Z,27.00
2023-04-09T11:07:01.973Z,27.02
2023-04-09T11:08:02.020Z,26.97
2023-04-09T11:09:02.060Z,26.96
2023-04-09T11:10:02.118Z,27.00
2023-04-09T11:11:02.416Z,26.99
2023-04-09T11:12:02.188Z,27.02
2023-04-09T11:13:02.225Z,27.00
2023-04-09T11:14:02.279Z,27.02
2023-04-09T11:15:02.308Z,26.97
2023-04-09T11:16:02.350Z,27.00
2023-04-09T11:17:02.371Z,27.03
2023-04-09T11:18:02.488Z,27.02
2023-04-09T11:19:02.458Z,27.00
2023-04-09T11:20:02.514Z,27.06
2023-04-09T11:21:02.550Z,27.06
2023-04-09T11:22:02.584Z,27.06
2023-04-09T11:23:02.634Z,27.06
2023-04-09T11:24:02.690Z,27.06
2023-04-09T11:25:02.714Z,27.04
2023-04-09T11:26:02.777Z,26.99
2023-04-09T11:27:02.960Z,27.06
2023-04-09T11:28:02.820Z,27.06
2023-04-09T11:29:02.995Z,27.03
2023-04-09T11:30:02.913Z,27.05
2023-04-09T11:31:03.024Z,27.02
2023-04-09T11:32:02.991Z,27.05
2023-04-09T11:33:03.127Z,26.99
2023-04-09T11:34:03.060Z,27.05
2023-04-09T11:35:03.100Z,27.02
2023-04-09T11:36:04.091Z,27.03
2023-04-09T11:37:03.061Z,27.04
2023-04-09T11:38:04.044Z,27.04
2023-04-09T11:39:03.008Z,27.06
2023-04-09T11:40:02.984Z,27.08
2023-04-09T11:41:02.972Z,27.03
2023-04-09T11:42:02.956Z,27.06
2023-04-09T11:43:02.937Z,27.13
2023-04-09T11:44:02.921Z,27.09
2023-04-09T11:45:02.930Z,27.04
2023-04-09T11:46:02.976Z,27.09
2023-04-09T11:47:04.742Z,27.12
2023-04-09T11:48:03.256Z,27.09
2023-04-09T11:49:03.116Z,27.12
2023-04-09T11:50:03.165Z,27.08
2023-04-09T11:51:03.177Z,27.06
2023-04-09T11:52:03.217Z,27.09
2023-04-09T11:53:03.270Z,27.11
2023-04-09T11:54:03.340Z,27.11
2023-04-09T11:55:03.325Z,27.07
2023-04-09T11:56:03.543Z,27.08
2023-04-09T11:57:03.436Z,27.05
2023-04-09T11:58:03.486Z,27.08
2023-04-09T11:59:03.501Z,27.13
2023-04-09T12:00:05.361Z,27.13
2023-04-09T12:01:03.589Z,27.09
2023-04-09T12:02:03.701Z,27.07
2023-04-09T12:03:04.096Z,27.13
2023-04-09T12:04:04.049Z,27.13
2023-04-09T12:05:03.807Z,27.15
2023-04-09T12:06:04.150Z,27.16
2023-04-09T12:07:03.843Z,27.13
2023-04-09T12:08:03.884Z,27.13
2023-04-09T12:09:03.925Z,27.10
2023-04-09T12:10:03.973Z,27.16
2023-04-09T12:11:04.040Z,27.15
2023-04-09T12:12:05.045Z,27.17
2023-04-09T12:13:04.149Z,27.15
2023-04-09T12:14:04.130Z,27.16
2023-04-09T12:15:04.340Z,27.15
2023-04-09T12:16:04.279Z,27.19
2023-04-09T12:17:04.322Z,27.16
2023-04-09T12:18:04.438Z,27.14
2023-04-09T12:19:04.359Z,27.17
2023-04-09T12:20:04.403Z,27.19
2023-04-09T12:21:04.462Z,27.16
2023-04-09T12:22:04.490Z,27.15
2023-04-09T12:23:04.559Z,27.17
2023-04-09T12:24:04.577Z,27.14
2023-04-09T12:25:04.611Z,27.19
2023-04-09T12:26:04.662Z,27.17
2023-04-09T12:27:04.714Z,27.17
2023-04-09T12:28:04.754Z,27.20
2023-04-09T12:29:04.804Z,27.17
2023-04-09T12:30:04.842Z,27.16
2023-04-09T12:31:04.990Z,27.17
2023-04-09T12:32:05.006Z,27.14
2023-04-09T12:33:05.068Z,27.20
2023-04-09T12:34:05.016Z,27.17
2023-04-09T12:35:05.059Z,27.15
2023-04-09T12:36:05.129Z,27.14
2023-04-09T12:37:05.146Z,27.23
2023-04-09T12:38:05.190Z,27.17
2023-04-09T12:39:05.244Z,27.17
2023-04-09T12:40:05.294Z,27.16
2023-04-09T12:41:06.150Z,27.15
2023-04-09T12:42:05.397Z,27.17
2023-04-09T12:43:05.442Z,27.13
2023-04-09T12:44:05.467Z,27.15
2023-04-09T12:45:05.519Z,27.13
2023-04-09T12:46:05.584Z,27.13
2023-04-09T12:47:05.620Z,27.07
2023-04-09T12:48:05.655Z,27.13
2023-04-09T12:49:05.687Z,27.12
2023-04-09T12:50:05.798Z,27.10
2023-04-09T12:51:05.780Z,27.09
2023-04-09T12:52:06.599Z,27.10
2023-04-09T12:53:05.862Z,27.16